sensor_id;sensor_type;location;lat;lon;timestamp;temperature;humidity
70826;SHT31;58446;41.490;22.098;2023-02-14T00:02:08;2.95;62.31
70826;SHT31;58446;41.490;22.098;2023-02-14T00:04:33;2.26;61.65
70826;SHT31;58446;41.490;22.098;2023-02-14T00:07:03;2.02;63.98
70826;SHT31;58446;41.490;22.098;2023-02-14T00:09:30;2.25;63.97
70826;SHT31;58446;41.490;22.098;2023-02-14T00:11:55;2.32;64.15
70826;SHT31;58446;41.490;22.098;2023-02-14T00:14:22;2.41;64.10
70826;SHT31;58446;41.490;22.098;2023-02-14T00:17:06;2.65;63.35
70826;SHT31;58446;41.490;22.098;2023-02-14T00:19:32;2.43;64.47
70826;SHT31;58446;41.490;22.098;2023-02-14T00:22:00;2.51;64.18
70826;SHT31;58446;41.490;22.098;2023-02-14T00:24:26;2.41;63.09
70826;SHT31;58446;41.490;22.098;2023-02-14T00:26:52;2.32;63.75
70826;SHT31;58446;41.490;22.098;2023-02-14T00:29:24;1.31;66.15
70826;SHT31;58446;41.490;22.098;2023-02-14T00:31:50;1.48;67.01
70826;SHT31;58446;41.490;22.098;2023-02-14T00:34:17;1.94;66.18
70826;SHT31;58446;41.490;22.098;2023-02-14T00:36:43;1.79;65.20
70826;SHT31;58446;41.490;22.098;2023-02-14T00:39:11;1.91;65.90
70826;SHT31;58446;41.490;22.098;2023-02-14T00:41:38;2.16;65.27
70826;SHT31;58446;41.490;22.098;2023-02-14T00:44:04;1.30;66.49
70826;SHT31;58446;41.490;22.098;2023-02-14T00:46:30;1.91;66.69
70826;SHT31;58446;41.490;22.098;2023-02-14T00:48:56;2.13;65.17
70826;SHT31;58446;41.490;22.098;2023-02-14T00:51:22;2.51;64.16
70826;SHT31;58446;41.490;22.098;2023-02-14T00:53:48;2.30;63.47
70826;SHT31;58446;41.490;22.098;2023-02-14T00:56:14;2.43;64.30
70826;SHT31;58446;41.490;22.098;2023-02-14T00:58:40;2.44;63.62
70826;SHT31;58446;41.490;22.098;2023-02-14T01:01:07;2.51;64.04
70826;SHT31;58446;41.490;22.098;2023-02-14T01:03:33;2.34;63.79
70826;SHT31;58446;41.490;22.098;2023-02-14T01:05:59;1.75;65.55
70826;SHT31;58446;41.490;22.098;2023-02-14T01:08:25;1.96;64.68
70826;SHT31;58446;41.490;22.098;2023-02-14T01:10:51;2.15;64.79
70826;SHT31;58446;41.490;22.098;2023-02-14T01:13:17;2.09;64.45
70826;SHT31;58446;41.490;22.098;2023-02-14T01:15:47;2.16;64.47
70826;SHT31;58446;41.490;22.098;2023-02-14T01:18:14;1.78;64.40
70826;SHT31;58446;41.490;22.098;2023-02-14T01:20:40;2.08;64.77
70826;SHT31;58446;41.490;22.098;2023-02-14T01:23:05;1.83;63.93
70826;SHT31;58446;41.490;22.098;2023-02-14T01:25:31;1.95;65.14
70826;SHT31;58446;41.490;22.098;2023-02-14T01:27:57;1.91;63.80
70826;SHT31;58446;41.490;22.098;2023-02-14T01:30:23;2.05;64.59
70826;SHT31;58446;41.490;22.098;2023-02-14T01:32:49;2.15;64.66
70826;SHT31;58446;41.490;22.098;2023-02-14T01:35:14;2.23;64.19
70826;SHT31;58446;41.490;22.098;2023-02-14T01:37:40;1.72;64.88
70826;SHT31;58446;41.490;22.098;2023-02-14T01:40:07;2.13;64.79
70826;SHT31;58446;41.490;22.098;2023-02-14T01:42:34;1.95;63.89
70826;SHT31;58446;41.490;22.098;2023-02-14T01:45:21;2.09;64.85
70826;SHT31;58446;41.490;22.098;2023-02-14T01:47:52;1.88;63.48
70826;SHT31;58446;41.490;22.098;2023-02-14T01:50:20;1.75;65.11
70826;SHT31;58446;41.490;22.098;2023-02-14T01:53:09;1.92;65.06
70826;SHT31;58446;41.490;22.098;2023-02-14T01:55:40;2.01;64.50
70826;SHT31;58446;41.490;22.098;2023-02-14T01:58:20;2.10;64.22
70826;SHT31;58446;41.490;22.098;2023-02-14T02:00:48;2.25;63.93
70826;SHT31;58446;41.490;22.098;2023-02-14T02:03:27;2.37;63.29
70826;SHT31;58446;41.490;22.098;2023-02-14T02:06:10;2.36;62.90
70826;SHT31;58446;41.490;22.098;2023-02-14T02:08:40;1.15;64.61
70826;SHT31;58446;41.490;22.098;2023-02-14T02:11:07;1.51;65.32
70826;SHT31;58446;41.490;22.098;2023-02-14T02:13:33;1.16;66.01
70826;SHT31;58446;41.490;22.098;2023-02-14T02:18:55;1.47;66.58
70826;SHT31;58446;41.490;22.098;2023-02-14T02:30:20;1.50;66.04
70826;SHT31;58446;41.490;22.098;2023-02-14T02:33:15;1.50;65.00
70826;SHT31;58446;41.490;22.098;2023-02-14T02:39:05;1.37;67.08
70826;SHT31;58446;41.490;22.098;2023-02-14T02:47:17;0.75;68.95
70826;SHT31;58446;41.490;22.098;2023-02-14T02:49:55;1.03;68.51
70826;SHT31;58446;41.490;22.098;2023-02-14T02:58:39;1.24;67.63
70826;SHT31;58446;41.490;22.098;2023-02-14T03:01:10;0.95;66.39
70826;SHT31;58446;41.490;22.098;2023-02-14T03:03:39;1.27;67.20
70826;SHT31;58446;41.490;22.098;2023-02-14T03:06:24;1.30;65.84
70826;SHT31;58446;41.490;22.098;2023-02-14T03:08:49;1.37;66.37
70826;SHT31;58446;41.490;22.098;2023-02-14T03:11:15;1.15;66.72
70826;SHT31;58446;41.490;22.098;2023-02-14T03:13:49;1.41;66.60
70826;SHT31;58446;41.490;22.098;2023-02-14T03:16:36;1.06;67.42
70826;SHT31;58446;41.490;22.098;2023-02-14T03:19:25;1.33;67.15
70826;SHT31;58446;41.490;22.098;2023-02-14T03:22:38;1.31;66.69
70826;SHT31;58446;41.490;22.098;2023-02-14T03:27:53;1.01;66.94
70826;SHT31;58446;41.490;22.098;2023-02-14T03:33:17;0.79;67.79
70826;SHT31;58446;41.490;22.098;2023-02-14T03:41:03;0.92;65.92
70826;SHT31;58446;41.490;22.098;2023-02-14T03:46:19;0.51;67.62
70826;SHT31;58446;41.490;22.098;2023-02-14T03:48:49;1.00;67.91
70826;SHT31;58446;41.490;22.098;2023-02-14T03:51:17;1.16;66.97
70826;SHT31;58446;41.490;22.098;2023-02-14T03:53:45;1.30;66.97
70826;SHT31;58446;41.490;22.098;2023-02-14T03:56:21;1.20;65.20
70826;SHT31;58446;41.490;22.098;2023-02-14T03:58:52;1.40;66.36
70826;SHT31;58446;41.490;22.098;2023-02-14T04:01:29;1.47;65.02
70826;SHT31;58446;41.490;22.098;2023-02-14T04:03:58;1.55;65.17
70826;SHT31;58446;41.490;22.098;2023-02-14T04:06:24;1.64;65.15
70826;SHT31;58446;41.490;22.098;2023-02-14T04:08:50;1.33;65.69
70826;SHT31;58446;41.490;22.098;2023-02-14T04:11:16;1.16;66.40
70826;SHT31;58446;41.490;22.098;2023-02-14T04:13:42;0.58;66.84
70826;SHT31;58446;41.490;22.098;2023-02-14T04:16:07;0.87;66.99
70826;SHT31;58446;41.490;22.098;2023-02-14T04:18:33;0.99;66.63
70826;SHT31;58446;41.490;22.098;2023-02-14T04:21:18;1.36;66.05
70826;SHT31;58446;41.490;22.098;2023-02-14T04:23:44;1.77;64.63
70826;SHT31;58446;41.490;22.098;2023-02-14T04:26:10;1.64;65.02
70826;SHT31;58446;41.490;22.098;2023-02-14T04:28:35;0.96;65.86
70826;SHT31;58446;41.490;22.098;2023-02-14T04:31:03;1.22;66.34
70826;SHT31;58446;41.490;22.098;2023-02-14T04:33:29;1.07;67.16
70826;SHT31;58446;41.490;22.098;2023-02-14T04:35:55;1.28;66.47
70826;SHT31;58446;41.490;22.098;2023-02-14T04:38:21;1.23;66.53
70826;SHT31;58446;41.490;22.098;2023-02-14T04:40:50;1.38;66.25
70826;SHT31;58446;41.490;22.098;2023-02-14T04:43:16;1.06;65.69
70826;SHT31;58446;41.490;22.098;2023-02-14T04:45:41;1.27;66.81
70826;SHT31;58446;41.490;22.098;2023-02-14T04:48:07;1.41;66.05
70826;SHT31;58446;41.490;22.098;2023-02-14T04:50:33;1.47;65.66
70826;SHT31;58446;41.490;22.098;2023-02-14T04:52:58;1.36;65.71
70826;SHT31;58446;41.490;22.098;2023-02-14T04:55:24;0.27;67.27
70826;SHT31;58446;41.490;22.098;2023-02-14T04:57:50;0.86;67.97
70826;SHT31;58446;41.490;22.098;2023-02-14T05:00:16;0.58;68.32
70826;SHT31;58446;41.490;22.098;2023-02-14T05:02:42;1.30;66.54
70826;SHT31;58446;41.490;22.098;2023-02-14T05:05:07;0.76;65.64
70826;SHT31;58446;41.490;22.098;2023-02-14T05:07:33;1.08;67.23
70826;SHT31;58446;41.490;22.098;2023-02-14T05:09:59;1.19;66.46
70826;SHT31;58446;41.490;22.098;2023-02-14T05:12:24;1.30;65.99
70826;SHT31;58446;41.490;22.098;2023-02-14T05:14:50;0.96;65.13
70826;SHT31;58446;41.490;22.098;2023-02-14T05:17:15;0.58;66.40
70826;SHT31;58446;41.490;22.098;2023-02-14T05:19:41;0.93;66.84
70826;SHT31;58446;41.490;22.098;2023-02-14T05:22:07;0.87;66.69
70826;SHT31;58446;41.490;22.098;2023-02-14T05:24:32;0.97;67.13
70826;SHT31;58446;41.490;22.098;2023-02-14T05:26:58;1.08;66.29
70826;SHT31;58446;41.490;22.098;2023-02-14T05:29:24;1.19;65.64
70826;SHT31;58446;41.490;22.098;2023-02-14T05:31:50;0.83;65.65
70826;SHT31;58446;41.490;22.098;2023-02-14T05:34:16;-0.14;68.03
70826;SHT31;58446;41.490;22.098;2023-02-14T05:36:43;-0.18;69.99
70826;SHT31;58446;41.490;22.098;2023-02-14T05:39:08;0.37;69.39
70826;SHT31;58446;41.490;22.098;2023-02-14T05:41:35;0.65;68.45
70826;SHT31;58446;41.490;22.098;2023-02-14T05:44:00;1.00;67.10
70826;SHT31;58446;41.490;22.098;2023-02-14T05:46:26;1.23;66.36
70826;SHT31;58446;41.490;22.098;2023-02-14T05:48:52;1.12;65.89
70826;SHT31;58446;41.490;22.098;2023-02-14T05:51:17;0.90;66.86
70826;SHT31;58446;41.490;22.098;2023-02-14T05:53:43;1.04;66.67
70826;SHT31;58446;41.490;22.098;2023-02-14T05:56:08;1.28;66.22
70826;SHT31;58446;41.490;22.098;2023-02-14T05:58:34;0.97;66.40
70826;SHT31;58446;41.490;22.098;2023-02-14T06:01:00;0.93;65.43
70826;SHT31;58446;41.490;22.098;2023-02-14T06:03:26;1.40;65.49
70826;SHT31;58446;41.490;22.098;2023-02-14T06:05:52;1.34;65.69
70826;SHT31;58446;41.490;22.098;2023-02-14T06:08:17;1.86;64.26
70826;SHT31;58446;41.490;22.098;2023-02-14T06:10:43;2.81;61.27
70826;SHT31;58446;41.490;22.098;2023-02-14T06:13:09;3.53;58.92
70826;SHT31;58446;41.490;22.098;2023-02-14T06:15:36;4.31;56.63
70826;SHT31;58446;41.490;22.098;2023-02-14T06:18:02;4.25;56.58
70826;SHT31;58446;41.490;22.098;2023-02-14T06:20:28;4.53;55.47
70826;SHT31;58446;41.490;22.098;2023-02-14T06:22:54;4.58;55.27
70826;SHT31;58446;41.490;22.098;2023-02-14T06:25:21;4.69;55.20
70826;SHT31;58446;41.490;22.098;2023-02-14T06:27:47;5.85;52.52
70826;SHT31;58446;41.490;22.098;2023-02-14T06:30:14;5.35;53.56
70826;SHT31;58446;41.490;22.098;2023-02-14T06:32:40;5.56;52.73
70826;SHT31;58446;41.490;22.098;2023-02-14T06:35:06;5.21;54.49
70826;SHT31;58446;41.490;22.098;2023-02-14T06:37:32;5.66;52.81
70826;SHT31;58446;41.490;22.098;2023-02-14T06:39:58;5.38;54.05
70826;SHT31;58446;41.490;22.098;2023-02-14T06:42:24;6.14;52.47
70826;SHT31;58446;41.490;22.098;2023-02-14T06:44:50;6.87;51.02
70826;SHT31;58446;41.490;22.098;2023-02-14T06:47:15;6.41;51.39
70826;SHT31;58446;41.490;22.098;2023-02-14T06:49:41;5.63;53.39
70826;SHT31;58446;41.490;22.098;2023-02-14T06:52:07;5.40;54.63
70826;SHT31;58446;41.490;22.098;2023-02-14T06:54:32;5.11;55.48
70826;SHT31;58446;41.490;22.098;2023-02-14T06:56:58;5.32;55.03
70826;SHT31;58446;41.490;22.098;2023-02-14T06:59:24;6.23;53.00
70826;SHT31;58446;41.490;22.098;2023-02-14T07:01:50;6.13;53.12
70826;SHT31;58446;41.490;22.098;2023-02-14T07:04:15;6.16;53.03
70826;SHT31;58446;41.490;22.098;2023-02-14T07:06:43;6.20;52.92
70826;SHT31;58446;41.490;22.098;2023-02-14T07:09:08;6.09;53.88
70826;SHT31;58446;41.490;22.098;2023-02-14T07:11:34;6.06;54.79
70826;SHT31;58446;41.490;22.098;2023-02-14T07:14:00;5.95;54.14
70826;SHT31;58446;41.490;22.098;2023-02-14T07:16:25;5.85;55.54
70826;SHT31;58446;41.490;22.098;2023-02-14T07:18:51;5.76;57.01
70826;SHT31;58446;41.490;22.098;2023-02-14T07:21:16;5.79;56.88
70826;SHT31;58446;41.490;22.098;2023-02-14T07:23:42;6.09;55.61
70826;SHT31;58446;41.490;22.098;2023-02-14T07:26:12;5.75;56.82
70826;SHT31;58446;41.490;22.098;2023-02-14T07:28:45;5.75;57.26
70826;SHT31;58446;41.490;22.098;2023-02-14T07:31:14;5.92;56.95
70826;SHT31;58446;41.490;22.098;2023-02-14T07:33:41;5.96;56.90
70826;SHT31;58446;41.490;22.098;2023-02-14T07:36:07;5.81;57.86
70826;SHT31;58446;41.490;22.098;2023-02-14T07:38:34;5.91;57.31
70826;SHT31;58446;41.490;22.098;2023-02-14T07:41:00;6.48;55.68
70826;SHT31;58446;41.490;22.098;2023-02-14T07:43:26;6.40;55.69
70826;SHT31;58446;41.490;22.098;2023-02-14T07:45:52;6.51;55.64
70826;SHT31;58446;41.490;22.098;2023-02-14T07:48:18;6.48;55.39
70826;SHT31;58446;41.490;22.098;2023-02-14T07:50:43;6.67;55.65
70826;SHT31;58446;41.490;22.098;2023-02-14T07:53:09;6.67;55.78
70826;SHT31;58446;41.490;22.098;2023-02-14T07:55:35;7.15;54.85
70826;SHT31;58446;41.490;22.098;2023-02-14T07:58:01;7.32;54.19
70826;SHT31;58446;41.490;22.098;2023-02-14T08:00:27;7.16;53.88
70826;SHT31;58446;41.490;22.098;2023-02-14T08:02:52;7.20;54.77
70826;SHT31;58446;41.490;22.098;2023-02-14T08:05:21;7.54;53.03
70826;SHT31;58446;41.490;22.098;2023-02-14T08:07:47;7.81;52.65
70826;SHT31;58446;41.490;22.098;2023-02-14T08:10:13;7.87;53.07
70826;SHT31;58446;41.490;22.098;2023-02-14T08:12:39;8.12;52.55
70826;SHT31;58446;41.490;22.098;2023-02-14T08:15:33;8.02;51.74
70826;SHT31;58446;41.490;22.098;2023-02-14T08:18:19;8.11;52.31
70826;SHT31;58446;41.490;22.098;2023-02-14T08:20:46;8.44;51.06
70826;SHT31;58446;41.490;22.098;2023-02-14T08:23:16;8.38;50.75
70826;SHT31;58446;41.490;22.098;2023-02-14T08:25:42;8.62;50.63
70826;SHT31;58446;41.490;22.098;2023-02-14T08:28:07;8.60;50.78
70826;SHT31;58446;41.490;22.098;2023-02-14T08:30:35;8.44;51.53
70826;SHT31;58446;41.490;22.098;2023-02-14T08:33:02;8.76;51.18
70826;SHT31;58446;41.490;22.098;2023-02-14T08:35:28;8.80;50.80
70826;SHT31;58446;41.490;22.098;2023-02-14T08:37:54;9.01;51.75
70826;SHT31;58446;41.490;22.098;2023-02-14T08:40:19;9.24;50.83
70826;SHT31;58446;41.490;22.098;2023-02-14T08:42:45;9.55;50.31
70826;SHT31;58446;41.490;22.098;2023-02-14T08:45:11;9.66;49.34
70826;SHT31;58446;41.490;22.098;2023-02-14T08:47:36;9.69;50.07
70826;SHT31;58446;41.490;22.098;2023-02-14T08:50:08;9.83;50.02
70826;SHT31;58446;41.490;22.098;2023-02-14T08:52:34;10.09;48.41
70826;SHT31;58446;41.490;22.098;2023-02-14T08:55:00;9.95;48.53
70826;SHT31;58446;41.490;22.098;2023-02-14T08:57:27;10.00;48.77
70826;SHT31;58446;41.490;22.098;2023-02-14T08:59:53;10.02;48.82
70826;SHT31;58446;41.490;22.098;2023-02-14T09:02:18;10.03;48.30
70826;SHT31;58446;41.490;22.098;2023-02-14T09:04:44;9.96;48.10
70826;SHT31;58446;41.490;22.098;2023-02-14T09:07:11;9.95;48.62
70826;SHT31;58446;41.490;22.098;2023-02-14T09:09:36;10.12;48.85
70826;SHT31;58446;41.490;22.098;2023-02-14T09:12:04;10.24;48.16
70826;SHT31;58446;41.490;22.098;2023-02-14T09:14:36;10.40;47.95
70826;SHT31;58446;41.490;22.098;2023-02-14T09:17:03;10.40;47.26
70826;SHT31;58446;41.490;22.098;2023-02-14T09:19:34;10.60;47.63
70826;SHT31;58446;41.490;22.098;2023-02-14T09:22:01;9.87;48.31
70826;SHT31;58446;41.490;22.098;2023-02-14T09:24:30;9.42;49.44
70826;SHT31;58446;41.490;22.098;2023-02-14T09:26:56;9.31;51.00
70826;SHT31;58446;41.490;22.098;2023-02-14T09:29:23;8.96;51.32
70826;SHT31;58446;41.490;22.098;2023-02-14T09:31:54;9.39;50.63
70826;SHT31;58446;41.490;22.098;2023-02-14T09:34:21;9.68;49.92
70826;SHT31;58446;41.490;22.098;2023-02-14T09:36:46;9.54;49.46
70826;SHT31;58446;41.490;22.098;2023-02-14T09:39:30;8.86;51.38
70826;SHT31;58446;41.490;22.098;2023-02-14T09:42:26;8.35;53.13
70826;SHT31;58446;41.490;22.098;2023-02-14T09:45:07;8.25;53.32
70826;SHT31;58446;41.490;22.098;2023-02-14T09:50:26;7.85;54.43
70826;SHT31;58446;41.490;22.098;2023-02-14T09:52:57;7.71;55.01
70826;SHT31;58446;41.490;22.098;2023-02-14T09:55:28;7.60;55.07
70826;SHT31;58446;41.490;22.098;2023-02-14T09:58:43;7.87;54.18
70826;SHT31;58446;41.490;22.098;2023-02-14T10:12:15;7.81;54.45
70826;SHT31;58446;41.490;22.098;2023-02-14T10:14:41;7.85;54.38
70826;SHT31;58446;41.490;22.098;2023-02-14T10:17:23;7.95;54.33
70826;SHT31;58446;41.490;22.098;2023-02-14T10:19:56;7.93;54.67
70826;SHT31;58446;41.490;22.098;2023-02-14T10:22:31;7.81;55.24
70826;SHT31;58446;41.490;22.098;2023-02-14T10:25:07;7.67;55.56
70826;SHT31;58446;41.490;22.098;2023-02-14T10:27:40;7.67;55.57
70826;SHT31;58446;41.490;22.098;2023-02-14T10:30:21;7.66;55.83
70826;SHT31;58446;41.490;22.098;2023-02-14T10:32:49;7.64;55.78
70826;SHT31;58446;41.490;22.098;2023-02-14T10:35:46;7.63;55.61
70826;SHT31;58446;41.490;22.098;2023-02-14T10:46:57;7.56;55.70
70826;SHT31;58446;41.490;22.098;2023-02-14T10:49:48;7.56;55.25
70826;SHT31;58446;41.490;22.098;2023-02-14T10:52:31;7.57;55.06
70826;SHT31;58446;41.490;22.098;2023-02-14T10:55:22;7.57;54.90
70826;SHT31;58446;41.490;22.098;2023-02-14T10:57:53;7.56;54.90
70826;SHT31;58446;41.490;22.098;2023-02-14T11:00:30;7.57;55.10
70826;SHT31;58446;41.490;22.098;2023-02-14T11:02:59;7.63;55.14
70826;SHT31;58446;41.490;22.098;2023-02-14T11:05:33;7.67;55.05
70826;SHT31;58446;41.490;22.098;2023-02-14T11:07:59;7.71;55.15
70826;SHT31;58446;41.490;22.098;2023-02-14T11:10:29;7.74;55.05
70826;SHT31;58446;41.490;22.098;2023-02-14T11:12:56;7.67;55.04
70826;SHT31;58446;41.490;22.098;2023-02-14T11:15:34;7.71;55.05
70826;SHT31;58446;41.490;22.098;2023-02-14T11:18:23;7.71;54.84
70826;SHT31;58446;41.490;22.098;2023-02-14T11:21:15;7.70;54.84
70826;SHT31;58446;41.490;22.098;2023-02-14T11:23:49;7.67;54.90
70826;SHT31;58446;41.490;22.098;2023-02-14T11:26:21;7.66;54.47
70826;SHT31;58446;41.490;22.098;2023-02-14T11:28:57;7.70;54.14
70826;SHT31;58446;41.490;22.098;2023-02-14T11:31:37;7.73;54.06
70826;SHT31;58446;41.490;22.098;2023-02-14T11:34:34;7.80;53.85
70826;SHT31;58446;41.490;22.098;2023-02-14T11:37:02;7.85;53.71
70826;SHT31;58446;41.490;22.098;2023-02-14T11:39:33;7.90;53.48
70826;SHT31;58446;41.490;22.098;2023-02-14T11:42:02;7.81;53.32
70826;SHT31;58446;41.490;22.098;2023-02-14T11:44:32;7.87;52.95
70826;SHT31;58446;41.490;22.098;2023-02-14T11:49:53;7.84;52.46
70826;SHT31;58446;41.490;22.098;2023-02-14T11:52:19;7.83;52.25
70826;SHT31;58446;41.490;22.098;2023-02-14T11:54:51;7.91;51.97
70826;SHT31;58446;41.490;22.098;2023-02-14T11:57:32;7.94;52.02
70826;SHT31;58446;41.490;22.098;2023-02-14T12:00:02;8.01;52.00
70826;SHT31;58446;41.490;22.098;2023-02-14T12:02:43;8.12;51.96
70826;SHT31;58446;41.490;22.098;2023-02-14T12:05:33;8.14;51.69
70826;SHT31;58446;41.490;22.098;2023-02-14T12:08:02;8.05;51.78
70826;SHT31;58446;41.490;22.098;2023-02-14T12:10:31;8.01;51.79
70826;SHT31;58446;41.490;22.098;2023-02-14T12:15:37;8.15;51.64
70826;SHT31;58446;41.490;22.098;2023-02-14T12:21:39;8.38;51.33
70826;SHT31;58446;41.490;22.098;2023-02-14T12:29:50;8.12;51.32
70826;SHT31;58446;41.490;22.098;2023-02-14T12:32:20;8.28;51.35
70826;SHT31;58446;41.490;22.098;2023-02-14T12:34:47;8.39;51.06
70826;SHT31;58446;41.490;22.098;2023-02-14T12:37:28;8.28;51.07
70826;SHT31;58446;41.490;22.098;2023-02-14T12:43:09;8.36;51.13
70826;SHT31;58446;41.490;22.098;2023-02-14T12:46:14;8.39;51.08
70826;SHT31;58446;41.490;22.098;2023-02-14T12:51:59;8.42;50.57
70826;SHT31;58446;41.490;22.098;2023-02-14T12:57:40;8.39;50.52
70826;SHT31;58446;41.490;22.098;2023-02-14T13:03:34;8.72;50.43
70826;SHT31;58446;41.490;22.098;2023-02-14T13:06:30;8.56;49.89
70826;SHT31;58446;41.490;22.098;2023-02-14T13:11:56;8.66;50.28
70826;SHT31;58446;41.490;22.098;2023-02-14T13:14:44;8.66;50.06
70826;SHT31;58446;41.490;22.098;2023-02-14T13:22:16;8.56;49.43
70826;SHT31;58446;41.490;22.098;2023-02-14T13:24:46;8.59;49.58
70826;SHT31;58446;41.490;22.098;2023-02-14T13:27:22;8.48;49.68
70826;SHT31;58446;41.490;22.098;2023-02-14T13:29:56;8.62;49.90
70826;SHT31;58446;41.490;22.098;2023-02-14T13:32:37;8.56;50.19
70826;SHT31;58446;41.490;22.098;2023-02-14T13:35:04;8.56;50.53
70826;SHT31;58446;41.490;22.098;2023-02-14T13:37:31;8.66;50.25
70826;SHT31;58446;41.490;22.098;2023-02-14T13:40:03;8.55;50.25
70826;SHT31;58446;41.490;22.098;2023-02-14T13:48:16;8.60;50.37
70826;SHT31;58446;41.490;22.098;2023-02-14T13:51:00;8.55;50.32
70826;SHT31;58446;41.490;22.098;2023-02-14T13:53:37;8.63;50.17
70826;SHT31;58446;41.490;22.098;2023-02-14T13:58:55;8.55;50.68
70826;SHT31;58446;41.490;22.098;2023-02-14T14:19:57;8.65;50.32
70826;SHT31;58446;41.490;22.098;2023-02-14T14:22:23;8.63;50.20
70826;SHT31;58446;41.490;22.098;2023-02-14T14:24:53;8.56;50.42
70826;SHT31;58446;41.490;22.098;2023-02-14T14:27:23;8.66;50.55
70826;SHT31;58446;41.490;22.098;2023-02-14T14:32:31;8.49;50.65
70826;SHT31;58446;41.490;22.098;2023-02-14T14:35:04;8.46;50.65
70826;SHT31;58446;41.490;22.098;2023-02-14T14:37:34;8.41;50.70
70826;SHT31;58446;41.490;22.098;2023-02-14T14:40:06;8.42;50.58
70826;SHT31;58446;41.490;22.098;2023-02-14T14:42:38;8.38;50.75
70826;SHT31;58446;41.490;22.098;2023-02-14T14:45:19;8.26;50.95
70826;SHT31;58446;41.490;22.098;2023-02-14T14:47:46;8.35;50.99
70826;SHT31;58446;41.490;22.098;2023-02-14T14:50:27;8.29;50.96
70826;SHT31;58446;41.490;22.098;2023-02-14T14:52:58;8.22;51.22
70826;SHT31;58446;41.490;22.098;2023-02-14T14:55:27;8.22;51.20
70826;SHT31;58446;41.490;22.098;2023-02-14T14:57:59;8.11;51.41
70826;SHT31;58446;41.490;22.098;2023-02-14T15:00:33;8.15;51.29
70826;SHT31;58446;41.490;22.098;2023-02-14T15:03:13;8.09;51.38
70826;SHT31;58446;41.490;22.098;2023-02-14T15:05:41;8.05;51.40
70826;SHT31;58446;41.490;22.098;2023-02-14T15:10:55;7.98;51.55
70826;SHT31;58446;41.490;22.098;2023-02-14T15:13:33;8.02;51.54
70826;SHT31;58446;41.490;22.098;2023-02-14T15:16:38;7.97;51.66
70826;SHT31;58446;41.490;22.098;2023-02-14T15:19:14;7.97;51.79
70826;SHT31;58446;41.490;22.098;2023-02-14T15:21:41;7.94;51.94
70826;SHT31;58446;41.490;22.098;2023-02-14T15:24:12;7.94;51.94
70826;SHT31;58446;41.490;22.098;2023-02-14T15:26:42;7.94;51.93
70826;SHT31;58446;41.490;22.098;2023-02-14T15:29:28;7.90;52.01
70826;SHT31;58446;41.490;22.098;2023-02-14T15:31:56;7.80;52.25
70826;SHT31;58446;41.490;22.098;2023-02-14T15:34:26;7.73;52.47
70826;SHT31;58446;41.490;22.098;2023-02-14T15:36:53;7.70;52.60
70826;SHT31;58446;41.490;22.098;2023-02-14T15:39:31;7.69;52.60
70826;SHT31;58446;41.490;22.098;2023-02-14T15:41:57;7.67;52.60
70826;SHT31;58446;41.490;22.098;2023-02-14T15:44:24;7.66;52.71
70826;SHT31;58446;41.490;22.098;2023-02-14T15:46:55;7.62;52.85
70826;SHT31;58446;41.490;22.098;2023-02-14T15:49:29;7.62;52.94
70826;SHT31;58446;41.490;22.098;2023-02-14T15:51:55;7.60;53.10
70826;SHT31;58446;41.490;22.098;2023-02-14T15:54:47;7.59;53.07
70826;SHT31;58446;41.490;22.098;2023-02-14T15:57:21;7.56;53.07
70826;SHT31;58446;41.490;22.098;2023-02-14T15:59:48;7.52;53.28
70826;SHT31;58446;41.490;22.098;2023-02-14T16:02:35;7.49;53.19
70826;SHT31;58446;41.490;22.098;2023-02-14T16:05:17;7.47;53.23
70826;SHT31;58446;41.490;22.098;2023-02-14T16:07:59;7.46;53.29
70826;SHT31;58446;41.490;22.098;2023-02-14T16:10:26;7.42;53.27
70826;SHT31;58446;41.490;22.098;2023-02-14T16:13:01;7.43;53.38
70826;SHT31;58446;41.490;22.098;2023-02-14T16:15:32;7.40;53.48
70826;SHT31;58446;41.490;22.098;2023-02-14T16:18:00;7.42;53.46
70826;SHT31;58446;41.490;22.098;2023-02-14T16:25:46;7.25;53.72
70826;SHT31;58446;41.490;22.098;2023-02-14T16:28:14;7.20;53.76
70826;SHT31;58446;41.490;22.098;2023-02-14T16:30:40;7.25;53.69
70826;SHT31;58446;41.490;22.098;2023-02-14T16:33:15;7.20;53.93
70826;SHT31;58446;41.490;22.098;2023-02-14T16:35:42;7.25;53.78
70826;SHT31;58446;41.490;22.098;2023-02-14T16:38:11;7.25;53.79
70826;SHT31;58446;41.490;22.098;2023-02-14T16:40:41;7.23;53.84
70826;SHT31;58446;41.490;22.098;2023-02-14T16:43:13;7.22;54.17
70826;SHT31;58446;41.490;22.098;2023-02-14T16:45:41;7.22;54.11
70826;SHT31;58446;41.490;22.098;2023-02-14T16:48:06;7.16;54.24
70826;SHT31;58446;41.490;22.098;2023-02-14T16:50:33;7.15;54.49
70826;SHT31;58446;41.490;22.098;2023-02-14T16:53:00;7.12;54.70
70826;SHT31;58446;41.490;22.098;2023-02-14T16:55:26;7.11;54.62
70826;SHT31;58446;41.490;22.098;2023-02-14T16:57:54;7.08;55.05
70826;SHT31;58446;41.490;22.098;2023-02-14T17:00:21;7.09;54.80
70826;SHT31;58446;41.490;22.098;2023-02-14T17:02:47;7.08;54.92
70826;SHT31;58446;41.490;22.098;2023-02-14T17:05:13;7.05;55.16
70826;SHT31;58446;41.490;22.098;2023-02-14T17:07:41;7.05;55.16
70826;SHT31;58446;41.490;22.098;2023-02-14T17:10:16;7.03;55.17
70826;SHT31;58446;41.490;22.098;2023-02-14T17:12:46;7.02;55.45
70826;SHT31;58446;41.490;22.098;2023-02-14T17:15:16;6.99;55.40
70826;SHT31;58446;41.490;22.098;2023-02-14T17:17:43;7.01;55.18
70826;SHT31;58446;41.490;22.098;2023-02-14T17:20:12;7.03;55.48
70826;SHT31;58446;41.490;22.098;2023-02-14T17:22:38;7.05;55.23
70826;SHT31;58446;41.490;22.098;2023-02-14T17:25:04;7.02;55.30
70826;SHT31;58446;41.490;22.098;2023-02-14T17:27:30;7.01;55.37
70826;SHT31;58446;41.490;22.098;2023-02-14T17:29:56;6.95;55.58
70826;SHT31;58446;41.490;22.098;2023-02-14T17:32:21;7.01;55.31
70826;SHT31;58446;41.490;22.098;2023-02-14T17:34:47;7.02;55.42
70826;SHT31;58446;41.490;22.098;2023-02-14T17:37:13;6.98;55.50
70826;SHT31;58446;41.490;22.098;2023-02-14T17:39:39;6.98;55.50
70826;SHT31;58446;41.490;22.098;2023-02-14T17:42:05;6.88;55.80
70826;SHT31;58446;41.490;22.098;2023-02-14T17:44:32;6.87;56.00
70826;SHT31;58446;41.490;22.098;2023-02-14T17:47:01;6.89;55.71
70826;SHT31;58446;41.490;22.098;2023-02-14T17:49:27;6.89;55.66
70826;SHT31;58446;41.490;22.098;2023-02-14T17:51:53;6.89;55.61
70826;SHT31;58446;41.490;22.098;2023-02-14T17:54:21;6.91;56.03
70826;SHT31;58446;41.490;22.098;2023-02-14T17:56:47;6.91;55.91
70826;SHT31;58446;41.490;22.098;2023-02-14T17:59:12;6.84;56.12
70826;SHT31;58446;41.490;22.098;2023-02-14T18:01:38;6.84;56.39
70826;SHT31;58446;41.490;22.098;2023-02-14T18:04:03;6.85;56.16
70826;SHT31;58446;41.490;22.098;2023-02-14T18:06:32;6.85;56.03